Emmett, Michigan
Current Conditions -  °F | °C
As of 8:18 PM on Monday 26 Jan 2015 (Local Time) from KPHN Reporting Station
Overcast Overcast  
Wind Chill: 11°   Ceiling: 2700
Heat Index: 18°   Visibility: 10mi
Dew Point: 12°   Wind: 5mph
Humidity: 79%   Direction: 50°NE
Pressure: 29.98"   Gusts: NA
Location:  42.99°N, 82.76°W
Report Text: KPHN 270118Z AUTO 05004KT 10SM OVC027 M08/M11 A2998 RMK AO2
Loading
Personal Weather Stations






























Interactive Weather Map New forecast layout! Learn more

10-Day Weather Forecast

Advertisements
Track Severe Weather on mobile